sensor_id;sensor_type;location;lat;lon;timestamp;temperature;humidity
4896;DHT22;2463;49.948;8.472;2023-07-13T00:00:11;19.40;99.30
4896;DHT22;2463;49.948;8.472;2023-07-13T00:02:38;19.40;99.40
4896;DHT22;2463;49.948;8.472;2023-07-13T00:05:06;19.40;99.50
4896;DHT22;2463;49.948;8.472;2023-07-13T00:07:33;19.40;99.70
4896;DHT22;2463;49.948;8.472;2023-07-13T00:10:00;19.40;99.90
4896;DHT22;2463;49.948;8.472;2023-07-13T00:12:36;19.40;99.90
4896;DHT22;2463;49.948;8.472;2023-07-13T00:15:13;19.40;99.90
4896;DHT22;2463;49.948;8.472;2023-07-13T00:17:40;19.40;99.90
4896;DHT22;2463;49.948;8.472;2023-07-13T00:20:08;19.40;99.90
4896;DHT22;2463;49.948;8.472;2023-07-13T00:22:35;19.40;99.90
4896;DHT22;2463;49.948;8.472;2023-07-13T00:25:02;19.30;99.90
4896;DHT22;2463;49.948;8.472;2023-07-13T00:27:29;19.20;99.90
4896;DHT22;2463;49.948;8.472;2023-07-13T00:29:58;19.20;99.90
4896;DHT22;2463;49.948;8.472;2023-07-13T00:32:25;19.10;99.90
4896;DHT22;2463;49.948;8.472;2023-07-13T00:34:52;19.10;99.90
4896;DHT22;2463;49.948;8.472;2023-07-13T00:37:19;19.00;99.90
4896;DHT22;2463;49.948;8.472;2023-07-13T00:39:46;19.00;99.90
4896;DHT22;2463;49.948;8.472;2023-07-13T00:42:12;19.00;99.90
4896;DHT22;2463;49.948;8.472;2023-07-13T00:44:39;19.00;99.90
4896;DHT22;2463;49.948;8.472;2023-07-13T00:47:06;18.90;99.90
4896;DHT22;2463;49.948;8.472;2023-07-13T00:49:35;19.00;99.90
4896;DHT22;2463;49.948;8.472;2023-07-13T00:52:05;18.90;99.90
4896;DHT22;2463;49.948;8.472;2023-07-13T00:54:41;18.90;99.90
4896;DHT22;2463;49.948;8.472;2023-07-13T00:57:14;18.90;99.90
4896;DHT22;2463;49.948;8.472;2023-07-13T00:59:45;18.90;99.90
4896;DHT22;2463;49.948;8.472;2023-07-13T01:02:12;18.90;99.90
4896;DHT22;2463;49.948;8.472;2023-07-13T01:04:39;18.90;99.90
4896;DHT22;2463;49.948;8.472;2023-07-13T01:07:06;18.80;99.90
4896;DHT22;2463;49.948;8.472;2023-07-13T01:09:33;18.90;99.90
4896;DHT22;2463;49.948;8.472;2023-07-13T01:12:00;18.80;99.90
4896;DHT22;2463;49.948;8.472;2023-07-13T01:14:27;18.80;99.90
4896;DHT22;2463;49.948;8.472;2023-07-13T01:16:54;18.60;99.90
4896;DHT22;2463;49.948;8.472;2023-07-13T01:19:42;18.50;99.90
4896;DHT22;2463;49.948;8.472;2023-07-13T01:22:15;18.50;99.90
4896;DHT22;2463;49.948;8.472;2023-07-13T01:24:46;18.40;99.90
4896;DHT22;2463;49.948;8.472;2023-07-13T01:27:15;18.30;99.90
4896;DHT22;2463;49.948;8.472;2023-07-13T01:29:44;18.30;99.90
4896;DHT22;2463;49.948;8.472;2023-07-13T01:32:13;18.20;99.90
4896;DHT22;2463;49.948;8.472;2023-07-13T01:34:41;18.00;99.90
4896;DHT22;2463;49.948;8.472;2023-07-13T01:37:10;18.00;99.90
4896;DHT22;2463;49.948;8.472;2023-07-13T01:39:37;17.90;99.90
4896;DHT22;2463;49.948;8.472;2023-07-13T01:42:04;17.90;99.90
4896;DHT22;2463;49.948;8.472;2023-07-13T01:44:32;17.90;99.90
4896;DHT22;2463;49.948;8.472;2023-07-13T01:46:58;17.70;99.90
4896;DHT22;2463;49.948;8.472;2023-07-13T01:49:25;17.70;99.90
4896;DHT22;2463;49.948;8.472;2023-07-13T01:51:52;17.60;99.90
4896;DHT22;2463;49.948;8.472;2023-07-13T01:54:19;17.60;99.90
4896;DHT22;2463;49.948;8.472;2023-07-13T01:56:46;17.60;99.90
4896;DHT22;2463;49.948;8.472;2023-07-13T01:59:12;17.40;99.90
4896;DHT22;2463;49.948;8.472;2023-07-13T02:01:39;17.30;99.90
4896;DHT22;2463;49.948;8.472;2023-07-13T02:04:06;17.30;99.90
4896;DHT22;2463;49.948;8.472;2023-07-13T02:06:33;17.20;99.90
4896;DHT22;2463;49.948;8.472;2023-07-13T02:09:00;17.30;99.90
4896;DHT22;2463;49.948;8.472;2023-07-13T02:11:26;17.20;99.90
4896;DHT22;2463;49.948;8.472;2023-07-13T02:14:00;17.00;99.90
4896;DHT22;2463;49.948;8.472;2023-07-13T02:16:29;16.80;99.90
4896;DHT22;2463;49.948;8.472;2023-07-13T02:18:56;16.80;99.90
4896;DHT22;2463;49.948;8.472;2023-07-13T02:21:23;16.70;99.90
4896;DHT22;2463;49.948;8.472;2023-07-13T02:23:50;16.70;99.90
4896;DHT22;2463;49.948;8.472;2023-07-13T02:26:17;16.60;99.90
4896;DHT22;2463;49.948;8.472;2023-07-13T02:28:44;16.60;99.90
4896;DHT22;2463;49.948;8.472;2023-07-13T02:31:13;16.60;99.90
4896;DHT22;2463;49.948;8.472;2023-07-13T02:33:40;16.50;99.90
4896;DHT22;2463;49.948;8.472;2023-07-13T02:36:08;16.50;99.90
4896;DHT22;2463;49.948;8.472;2023-07-13T02:38:36;16.40;99.90
4896;DHT22;2463;49.948;8.472;2023-07-13T02:41:04;16.40;99.90
4896;DHT22;2463;49.948;8.472;2023-07-13T02:43:32;16.50;99.90
4896;DHT22;2463;49.948;8.472;2023-07-13T02:45:59;16.50;99.90
4896;DHT22;2463;49.948;8.472;2023-07-13T02:48:30;16.50;99.90
4896;DHT22;2463;49.948;8.472;2023-07-13T02:50:57;16.50;99.90
4896;DHT22;2463;49.948;8.472;2023-07-13T02:53:24;16.40;99.90
4896;DHT22;2463;49.948;8.472;2023-07-13T02:55:51;16.40;99.90
4896;DHT22;2463;49.948;8.472;2023-07-13T02:58:17;16.50;99.90
4896;DHT22;2463;49.948;8.472;2023-07-13T03:00:45;16.40;99.90
4896;DHT22;2463;49.948;8.472;2023-07-13T03:03:14;16.40;99.90
4896;DHT22;2463;49.948;8.472;2023-07-13T03:05:42;16.40;99.90
4896;DHT22;2463;49.948;8.472;2023-07-13T03:08:10;16.30;99.90
4896;DHT22;2463;49.948;8.472;2023-07-13T03:10:37;16.20;99.90
4896;DHT22;2463;49.948;8.472;2023-07-13T03:13:04;16.30;99.90
4896;DHT22;2463;49.948;8.472;2023-07-13T03:15:30;16.20;99.90
4896;DHT22;2463;49.948;8.472;2023-07-13T03:17:57;16.20;99.90
4896;DHT22;2463;49.948;8.472;2023-07-13T03:20:24;16.10;99.90
4896;DHT22;2463;49.948;8.472;2023-07-13T03:22:51;16.10;99.90
4896;DHT22;2463;49.948;8.472;2023-07-13T03:25:17;16.20;99.90
4896;DHT22;2463;49.948;8.472;2023-07-13T03:27:44;16.10;99.90
4896;DHT22;2463;49.948;8.472;2023-07-13T03:30:11;16.00;99.90
4896;DHT22;2463;49.948;8.472;2023-07-13T03:32:38;16.00;99.90
4896;DHT22;2463;49.948;8.472;2023-07-13T03:35:05;15.90;99.90
4896;DHT22;2463;49.948;8.472;2023-07-13T03:37:32;15.90;99.90
4896;DHT22;2463;49.948;8.472;2023-07-13T03:39:58;16.00;99.90
4896;DHT22;2463;49.948;8.472;2023-07-13T03:42:25;15.80;99.90
4896;DHT22;2463;49.948;8.472;2023-07-13T03:44:52;15.80;99.90
4896;DHT22;2463;49.948;8.472;2023-07-13T03:47:19;15.80;99.90
4896;DHT22;2463;49.948;8.472;2023-07-13T03:49:46;15.80;99.90
4896;DHT22;2463;49.948;8.472;2023-07-13T03:52:12;15.70;99.90
4896;DHT22;2463;49.948;8.472;2023-07-13T03:54:39;15.70;99.90
4896;DHT22;2463;49.948;8.472;2023-07-13T03:57:06;15.60;99.90
4896;DHT22;2463;49.948;8.472;2023-07-13T03:59:33;15.50;99.90
4896;DHT22;2463;49.948;8.472;2023-07-13T04:02:01;15.60;99.90
4896;DHT22;2463;49.948;8.472;2023-07-13T04:04:28;15.50;99.90
4896;DHT22;2463;49.948;8.472;2023-07-13T04:06:54;15.50;99.90
4896;DHT22;2463;49.948;8.472;2023-07-13T04:09:21;15.50;99.90
4896;DHT22;2463;49.948;8.472;2023-07-13T04:11:48;15.60;99.90
4896;DHT22;2463;49.948;8.472;2023-07-13T04:14:15;15.50;99.90
4896;DHT22;2463;49.948;8.472;2023-07-13T04:16:42;15.50;99.90
4896;DHT22;2463;49.948;8.472;2023-07-13T04:19:10;15.60;99.90
4896;DHT22;2463;49.948;8.472;2023-07-13T04:21:37;15.50;99.90
4896;DHT22;2463;49.948;8.472;2023-07-13T04:24:04;15.40;99.90
4896;DHT22;2463;49.948;8.472;2023-07-13T04:26:30;15.40;99.90
4896;DHT22;2463;49.948;8.472;2023-07-13T04:28:57;15.40;99.90
4896;DHT22;2463;49.948;8.472;2023-07-13T04:31:24;15.40;99.90
4896;DHT22;2463;49.948;8.472;2023-07-13T04:33:51;15.40;99.90
4896;DHT22;2463;49.948;8.472;2023-07-13T04:36:18;15.40;99.90
4896;DHT22;2463;49.948;8.472;2023-07-13T04:38:45;15.30;99.90
4896;DHT22;2463;49.948;8.472;2023-07-13T04:41:12;15.40;99.90
4896;DHT22;2463;49.948;8.472;2023-07-13T04:43:39;15.40;99.90
4896;DHT22;2463;49.948;8.472;2023-07-13T04:46:11;15.50;99.90
4896;DHT22;2463;49.948;8.472;2023-07-13T04:48:39;15.50;99.90
4896;DHT22;2463;49.948;8.472;2023-07-13T04:51:06;15.60;99.90
4896;DHT22;2463;49.948;8.472;2023-07-13T04:53:33;15.60;99.90
4896;DHT22;2463;49.948;8.472;2023-07-13T04:56:01;15.70;99.90
4896;DHT22;2463;49.948;8.472;2023-07-13T04:58:28;15.80;99.90
4896;DHT22;2463;49.948;8.472;2023-07-13T05:01:05;15.90;99.90
4896;DHT22;2463;49.948;8.472;2023-07-13T05:03:33;16.00;99.90
4896;DHT22;2463;49.948;8.472;2023-07-13T05:06:03;16.10;99.90
4896;DHT22;2463;49.948;8.472;2023-07-13T05:08:30;16.20;99.90
4896;DHT22;2463;49.948;8.472;2023-07-13T05:10:59;16.30;99.90
4896;DHT22;2463;49.948;8.472;2023-07-13T05:13:26;16.30;99.90
4896;DHT22;2463;49.948;8.472;2023-07-13T05:15:58;16.50;99.90
4896;DHT22;2463;49.948;8.472;2023-07-13T05:18:25;16.60;99.90
4896;DHT22;2463;49.948;8.472;2023-07-13T05:21:06;16.70;99.90
4896;DHT22;2463;49.948;8.472;2023-07-13T05:23:35;16.80;99.90
4896;DHT22;2463;49.948;8.472;2023-07-13T05:26:02;16.90;99.90
4896;DHT22;2463;49.948;8.472;2023-07-13T05:28:33;16.90;99.90
4896;DHT22;2463;49.948;8.472;2023-07-13T05:31:00;17.00;99.90
4896;DHT22;2463;49.948;8.472;2023-07-13T05:33:27;17.10;99.90
4896;DHT22;2463;49.948;8.472;2023-07-13T05:35:54;17.20;99.90
4896;DHT22;2463;49.948;8.472;2023-07-13T05:38:21;17.30;99.90
4896;DHT22;2463;49.948;8.472;2023-07-13T05:40:48;17.40;99.90
4896;DHT22;2463;49.948;8.472;2023-07-13T05:43:15;17.50;99.90
4896;DHT22;2463;49.948;8.472;2023-07-13T05:45:42;17.50;99.90
4896;DHT22;2463;49.948;8.472;2023-07-13T05:48:08;17.70;99.90
4896;DHT22;2463;49.948;8.472;2023-07-13T05:50:35;17.80;99.90
4896;DHT22;2463;49.948;8.472;2023-07-13T05:53:02;17.90;99.90
4896;DHT22;2463;49.948;8.472;2023-07-13T05:55:29;18.00;99.90
4896;DHT22;2463;49.948;8.472;2023-07-13T05:57:55;18.20;99.90
4896;DHT22;2463;49.948;8.472;2023-07-13T06:00:25;18.30;99.90
4896;DHT22;2463;49.948;8.472;2023-07-13T06:02:52;18.40;99.90
4896;DHT22;2463;49.948;8.472;2023-07-13T06:05:19;18.50;99.90
4896;DHT22;2463;49.948;8.472;2023-07-13T06:07:45;18.70;99.90
4896;DHT22;2463;49.948;8.472;2023-07-13T06:10:12;18.80;99.90
4896;DHT22;2463;49.948;8.472;2023-07-13T06:12:39;19.00;99.90
4896;DHT22;2463;49.948;8.472;2023-07-13T06:15:06;19.20;99.90
4896;DHT22;2463;49.948;8.472;2023-07-13T06:17:33;19.50;99.90
4896;DHT22;2463;49.948;8.472;2023-07-13T06:19:59;19.70;99.90
4896;DHT22;2463;49.948;8.472;2023-07-13T06:22:26;19.90;99.90
4896;DHT22;2463;49.948;8.472;2023-07-13T06:24:53;20.10;99.90
4896;DHT22;2463;49.948;8.472;2023-07-13T06:27:20;20.40;99.90
4896;DHT22;2463;49.948;8.472;2023-07-13T06:29:47;20.70;99.90
4896;DHT22;2463;49.948;8.472;2023-07-13T06:32:13;21.00;99.90
4896;DHT22;2463;49.948;8.472;2023-07-13T06:34:40;21.40;99.90
4896;DHT22;2463;49.948;8.472;2023-07-13T06:37:09;22.40;99.90
4896;DHT22;2463;49.948;8.472;2023-07-13T06:39:36;23.70;99.90
4896;DHT22;2463;49.948;8.472;2023-07-13T06:42:03;25.00;99.90
4896;DHT22;2463;49.948;8.472;2023-07-13T06:44:30;26.30;97.50
4896;DHT22;2463;49.948;8.472;2023-07-13T06:46:56;27.60;97.30
4896;DHT22;2463;49.948;8.472;2023-07-13T06:49:23;28.70;93.50
4896;DHT22;2463;49.948;8.472;2023-07-13T06:51:50;29.80;92.30
4896;DHT22;2463;49.948;8.472;2023-07-13T06:54:16;30.90;90.80
4896;DHT22;2463;49.948;8.472;2023-07-13T06:56:43;31.90;87.60
4896;DHT22;2463;49.948;8.472;2023-07-13T06:59:10;33.00;83.10
4896;DHT22;2463;49.948;8.472;2023-07-13T07:01:36;33.80;74.80
4896;DHT22;2463;49.948;8.472;2023-07-13T07:04:07;33.90;72.00
4896;DHT22;2463;49.948;8.472;2023-07-13T07:06:34;34.50;71.50
4896;DHT22;2463;49.948;8.472;2023-07-13T07:09:01;35.20;66.70
4896;DHT22;2463;49.948;8.472;2023-07-13T07:11:27;35.70;66.00
4896;DHT22;2463;49.948;8.472;2023-07-13T07:13:54;35.80;62.90
4896;DHT22;2463;49.948;8.472;2023-07-13T07:16:24;35.20;63.60
4896;DHT22;2463;49.948;8.472;2023-07-13T07:18:51;34.80;61.70
4896;DHT22;2463;49.948;8.472;2023-07-13T07:21:18;34.50;59.90
4896;DHT22;2463;49.948;8.472;2023-07-13T07:23:45;34.20;62.80
4896;DHT22;2463;49.948;8.472;2023-07-13T07:26:12;34.00;62.30
4896;DHT22;2463;49.948;8.472;2023-07-13T07:28:39;33.80;63.30
4896;DHT22;2463;49.948;8.472;2023-07-13T07:31:09;33.70;63.70
4896;DHT22;2463;49.948;8.472;2023-07-13T07:33:39;33.30;61.20
4896;DHT22;2463;49.948;8.472;2023-07-13T07:36:06;32.70;62.40
4896;DHT22;2463;49.948;8.472;2023-07-13T07:38:36;31.90;65.00
4896;DHT22;2463;49.948;8.472;2023-07-13T07:41:04;31.50;63.50
4896;DHT22;2463;49.948;8.472;2023-07-13T07:43:34;31.20;63.50
4896;DHT22;2463;49.948;8.472;2023-07-13T07:46:02;30.80;66.10
4896;DHT22;2463;49.948;8.472;2023-07-13T07:48:30;30.50;64.20
4896;DHT22;2463;49.948;8.472;2023-07-13T07:50:57;30.10;64.80
4896;DHT22;2463;49.948;8.472;2023-07-13T07:53:23;29.70;67.40
4896;DHT22;2463;49.948;8.472;2023-07-13T07:55:50;29.60;68.60
4896;DHT22;2463;49.948;8.472;2023-07-13T07:58:20;29.50;66.90
4896;DHT22;2463;49.948;8.472;2023-07-13T08:00:50;29.20;69.00
4896;DHT22;2463;49.948;8.472;2023-07-13T08:03:20;29.20;68.70
4896;DHT22;2463;49.948;8.472;2023-07-13T08:05:52;29.20;70.10
4896;DHT22;2463;49.948;8.472;2023-07-13T08:08:22;29.40;71.10
4896;DHT22;2463;49.948;8.472;2023-07-13T08:10:49;29.30;70.10
4896;DHT22;2463;49.948;8.472;2023-07-13T08:13:15;29.30;69.10
4896;DHT22;2463;49.948;8.472;2023-07-13T08:15:43;29.40;69.30
4896;DHT22;2463;49.948;8.472;2023-07-13T08:18:09;29.40;70.80
4896;DHT22;2463;49.948;8.472;2023-07-13T08:20:37;29.50;70.90
4896;DHT22;2463;49.948;8.472;2023-07-13T08:23:05;29.60;69.50
4896;DHT22;2463;49.948;8.472;2023-07-13T08:25:32;29.70;69.30
4896;DHT22;2463;49.948;8.472;2023-07-13T08:27:59;29.80;69.90
4896;DHT22;2463;49.948;8.472;2023-07-13T08:30:26;29.90;67.90
4896;DHT22;2463;49.948;8.472;2023-07-13T08:32:53;30.00;67.60
4896;DHT22;2463;49.948;8.472;2023-07-13T08:35:20;29.90;66.40
4896;DHT22;2463;49.948;8.472;2023-07-13T08:37:47;29.90;68.00
4896;DHT22;2463;49.948;8.472;2023-07-13T08:40:13;29.90;68.50
4896;DHT22;2463;49.948;8.472;2023-07-13T08:42:45;29.90;67.60
4896;DHT22;2463;49.948;8.472;2023-07-13T08:45:43;29.70;66.70
4896;DHT22;2463;49.948;8.472;2023-07-13T08:48:26;29.30;66.90
4896;DHT22;2463;49.948;8.472;2023-07-13T08:50:58;29.10;65.80
4896;DHT22;2463;49.948;8.472;2023-07-13T08:53:39;28.80;68.40
4896;DHT22;2463;49.948;8.472;2023-07-13T08:56:30;28.80;67.90
4896;DHT22;2463;49.948;8.472;2023-07-13T08:59:02;29.00;68.50
4896;DHT22;2463;49.948;8.472;2023-07-13T09:01:53;29.00;65.40
4896;DHT22;2463;49.948;8.472;2023-07-13T09:04:26;29.20;68.00
4896;DHT22;2463;49.948;8.472;2023-07-13T09:12:08;29.30;63.60
4896;DHT22;2463;49.948;8.472;2023-07-13T09:17:14;29.40;63.20
4896;DHT22;2463;49.948;8.472;2023-07-13T09:19:43;29.40;63.60
4896;DHT22;2463;49.948;8.472;2023-07-13T09:22:18;29.70;63.10
4896;DHT22;2463;49.948;8.472;2023-07-13T09:25:00;29.70;59.90
4896;DHT22;2463;49.948;8.472;2023-07-13T09:27:35;29.90;60.90
4896;DHT22;2463;49.948;8.472;2023-07-13T09:30:24;30.00;61.70
4896;DHT22;2463;49.948;8.472;2023-07-13T09:32:54;30.20;60.80
4896;DHT22;2463;49.948;8.472;2023-07-13T09:35:24;30.40;60.90
4896;DHT22;2463;49.948;8.472;2023-07-13T09:37:51;30.50;61.00
4896;DHT22;2463;49.948;8.472;2023-07-13T09:43:03;30.30;59.30
4896;DHT22;2463;49.948;8.472;2023-07-13T09:45:34;30.00;61.30
4896;DHT22;2463;49.948;8.472;2023-07-13T09:48:07;29.90;60.20
4896;DHT22;2463;49.948;8.472;2023-07-13T09:50:34;29.90;60.60
4896;DHT22;2463;49.948;8.472;2023-07-13T09:53:01;29.80;62.80
4896;DHT22;2463;49.948;8.472;2023-07-13T09:55:37;29.80;62.20
4896;DHT22;2463;49.948;8.472;2023-07-13T09:58:11;29.90;60.60
4896;DHT22;2463;49.948;8.472;2023-07-13T10:00:38;30.00;61.00
4896;DHT22;2463;49.948;8.472;2023-07-13T10:03:36;30.30;61.80
4896;DHT22;2463;49.948;8.472;2023-07-13T10:08:38;30.30;60.40
4896;DHT22;2463;49.948;8.472;2023-07-13T10:11:20;30.30;59.70
4896;DHT22;2463;49.948;8.472;2023-07-13T10:16:28;30.20;58.30
4896;DHT22;2463;49.948;8.472;2023-07-13T10:19:09;29.90;59.80
4896;DHT22;2463;49.948;8.472;2023-07-13T10:24:25;30.60;59.30
4896;DHT22;2463;49.948;8.472;2023-07-13T10:29:46;30.70;57.70
4896;DHT22;2463;49.948;8.472;2023-07-13T10:32:14;30.70;57.70
4896;DHT22;2463;49.948;8.472;2023-07-13T10:34:44;30.90;58.60
4896;DHT22;2463;49.948;8.472;2023-07-13T10:37:41;31.20;56.80
4896;DHT22;2463;49.948;8.472;2023-07-13T10:40:41;31.40;58.40
4896;DHT22;2463;49.948;8.472;2023-07-13T10:43:17;31.60;57.30
4896;DHT22;2463;49.948;8.472;2023-07-13T10:45:46;31.40;56.70
4896;DHT22;2463;49.948;8.472;2023-07-13T10:48:17;31.50;56.50
4896;DHT22;2463;49.948;8.472;2023-07-13T10:50:45;31.70;57.40
4896;DHT22;2463;49.948;8.472;2023-07-13T10:53:42;31.60;54.40
4896;DHT22;2463;49.948;8.472;2023-07-13T10:56:29;31.80;57.00
4896;DHT22;2463;49.948;8.472;2023-07-13T10:59:17;32.10;56.70
4896;DHT22;2463;49.948;8.472;2023-07-13T11:04:44;31.50;55.20
4896;DHT22;2463;49.948;8.472;2023-07-13T11:07:26;31.20;54.90
4896;DHT22;2463;49.948;8.472;2023-07-13T11:09:58;31.20;54.10
4896;DHT22;2463;49.948;8.472;2023-07-13T11:12:29;31.50;56.70
4896;DHT22;2463;49.948;8.472;2023-07-13T11:15:15;31.60;56.50
4896;DHT22;2463;49.948;8.472;2023-07-13T11:17:55;31.90;56.30
4896;DHT22;2463;49.948;8.472;2023-07-13T11:20:36;31.80;54.50
4896;DHT22;2463;49.948;8.472;2023-07-13T11:25:36;31.20;56.70
4896;DHT22;2463;49.948;8.472;2023-07-13T11:33:22;31.20;57.50
4896;DHT22;2463;49.948;8.472;2023-07-13T11:38:30;31.00;56.00
4896;DHT22;2463;49.948;8.472;2023-07-13T11:41:02;30.80;56.70
4896;DHT22;2463;49.948;8.472;2023-07-13T11:43:30;30.60;55.90
4896;DHT22;2463;49.948;8.472;2023-07-13T11:45:56;30.30;56.60
4896;DHT22;2463;49.948;8.472;2023-07-13T11:48:29;30.00;57.00
4896;DHT22;2463;49.948;8.472;2023-07-13T11:51:04;29.90;55.90
4896;DHT22;2463;49.948;8.472;2023-07-13T11:53:40;30.00;58.60
4896;DHT22;2463;49.948;8.472;2023-07-13T11:56:07;30.40;57.00
4896;DHT22;2463;49.948;8.472;2023-07-13T11:58:34;30.70;55.40
4896;DHT22;2463;49.948;8.472;2023-07-13T12:01:02;30.70;55.80
4896;DHT22;2463;49.948;8.472;2023-07-13T12:03:33;30.60;55.00
4896;DHT22;2463;49.948;8.472;2023-07-13T12:06:06;30.30;55.30
4896;DHT22;2463;49.948;8.472;2023-07-13T12:08:49;30.00;55.60
4896;DHT22;2463;49.948;8.472;2023-07-13T12:11:17;29.90;56.20
4896;DHT22;2463;49.948;8.472;2023-07-13T12:13:46;29.80;56.70
4896;DHT22;2463;49.948;8.472;2023-07-13T12:16:32;30.10;55.30
4896;DHT22;2463;49.948;8.472;2023-07-13T12:19:00;30.30;55.30
4896;DHT22;2463;49.948;8.472;2023-07-13T12:21:38;30.40;55.30
4896;DHT22;2463;49.948;8.472;2023-07-13T12:24:14;30.50;55.70
4896;DHT22;2463;49.948;8.472;2023-07-13T12:26:41;30.70;55.90
4896;DHT22;2463;49.948;8.472;2023-07-13T12:29:15;30.70;53.60
4896;DHT22;2463;49.948;8.472;2023-07-13T12:31:45;30.70;54.80
4896;DHT22;2463;49.948;8.472;2023-07-13T12:34:15;30.70;54.90
4896;DHT22;2463;49.948;8.472;2023-07-13T12:37:00;30.80;55.10
4896;DHT22;2463;49.948;8.472;2023-07-13T12:39:45;30.70;55.00
4896;DHT22;2463;49.948;8.472;2023-07-13T12:42:28;31.20;56.10
4896;DHT22;2463;49.948;8.472;2023-07-13T12:45:05;31.10;54.80
4896;DHT22;2463;49.948;8.472;2023-07-13T12:47:41;30.70;54.20
4896;DHT22;2463;49.948;8.472;2023-07-13T12:50:18;30.30;55.10
4896;DHT22;2463;49.948;8.472;2023-07-13T12:52:51;29.90;54.80
4896;DHT22;2463;49.948;8.472;2023-07-13T12:55:20;29.50;55.20
4896;DHT22;2463;49.948;8.472;2023-07-13T12:57:57;29.20;55.70
4896;DHT22;2463;49.948;8.472;2023-07-13T13:00:32;28.90;55.80
4896;DHT22;2463;49.948;8.472;2023-07-13T13:03:06;28.70;56.40
4896;DHT22;2463;49.948;8.472;2023-07-13T13:05:57;28.60;58.10
4896;DHT22;2463;49.948;8.472;2023-07-13T13:08:23;28.70;59.00
4896;DHT22;2463;49.948;8.472;2023-07-13T13:10:50;28.60;57.50
4896;DHT22;2463;49.948;8.472;2023-07-13T13:13:17;28.40;57.60
4896;DHT22;2463;49.948;8.472;2023-07-13T13:15:44;28.50;57.50
4896;DHT22;2463;49.948;8.472;2023-07-13T13:18:18;28.60;57.70
4896;DHT22;2463;49.948;8.472;2023-07-13T13:20:46;28.60;57.60
4896;DHT22;2463;49.948;8.472;2023-07-13T13:23:16;28.60;57.60
4896;DHT22;2463;49.948;8.472;2023-07-13T13:25:46;28.50;57.80
4896;DHT22;2463;49.948;8.472;2023-07-13T13:28:16;28.40;57.70
4896;DHT22;2463;49.948;8.472;2023-07-13T13:30:43;28.20;57.20
4896;DHT22;2463;49.948;8.472;2023-07-13T13:33:11;28.20;57.90
4896;DHT22;2463;49.948;8.472;2023-07-13T13:35:39;28.20;58.50
4896;DHT22;2463;49.948;8.472;2023-07-13T13:38:12;28.20;57.70
4896;DHT22;2463;49.948;8.472;2023-07-13T13:40:42;28.20;58.60
4896;DHT22;2463;49.948;8.472;2023-07-13T13:43:29;28.20;58.50
4896;DHT22;2463;49.948;8.472;2023-07-13T13:45:57;28.20;57.80
4896;DHT22;2463;49.948;8.472;2023-07-13T13:48:31;28.20;58.50
4896;DHT22;2463;49.948;8.472;2023-07-13T13:50:59;28.20;58.20
4896;DHT22;2463;49.948;8.472;2023-07-13T13:53:27;28.10;57.10
4896;DHT22;2463;49.948;8.472;2023-07-13T13:55:54;28.20;58.20
4896;DHT22;2463;49.948;8.472;2023-07-13T13:58:21;28.20;59.30
4896;DHT22;2463;49.948;8.472;2023-07-13T14:00:48;28.20;59.20
4896;DHT22;2463;49.948;8.472;2023-07-13T14:03:19;28.30;57.60
4896;DHT22;2463;49.948;8.472;2023-07-13T14:05:46;28.20;58.10
4896;DHT22;2463;49.948;8.472;2023-07-13T14:08:15;28.30;58.60
4896;DHT22;2463;49.948;8.472;2023-07-13T14:10:47;28.30;59.40
4896;DHT22;2463;49.948;8.472;2023-07-13T14:13:21;28.40;58.70
4896;DHT22;2463;49.948;8.472;2023-07-13T14:15:49;28.60;58.30
4896;DHT22;2463;49.948;8.472;2023-07-13T14:18:17;28.60;58.20
4896;DHT22;2463;49.948;8.472;2023-07-13T14:20:46;28.60;57.60
4896;DHT22;2463;49.948;8.472;2023-07-13T14:23:14;28.50;57.40
4896;DHT22;2463;49.948;8.472;2023-07-13T14:25:42;28.40;57.60
4896;DHT22;2463;49.948;8.472;2023-07-13T14:28:25;28.40;57.60
4896;DHT22;2463;49.948;8.472;2023-07-13T14:30:53;28.40;58.50
4896;DHT22;2463;49.948;8.472;2023-07-13T14:33:21;28.30;58.70
4896;DHT22;2463;49.948;8.472;2023-07-13T14:35:49;28.40;57.50
4896;DHT22;2463;49.948;8.472;2023-07-13T14:38:19;28.40;57.20
4896;DHT22;2463;49.948;8.472;2023-07-13T14:40:46;28.40;57.60
4896;DHT22;2463;49.948;8.472;2023-07-13T14:43:14;28.40;57.60
4896;DHT22;2463;49.948;8.472;2023-07-13T14:45:44;28.20;58.00
4896;DHT22;2463;49.948;8.472;2023-07-13T14:48:19;28.20;58.00
4896;DHT22;2463;49.948;8.472;2023-07-13T14:50:50;28.00;58.50
4896;DHT22;2463;49.948;8.472;2023-07-13T14:53:19;27.80;58.60
4896;DHT22;2463;49.948;8.472;2023-07-13T14:55:46;27.60;58.90
4896;DHT22;2463;49.948;8.472;2023-07-13T14:58:13;27.60;60.30
4896;DHT22;2463;49.948;8.472;2023-07-13T15:00:41;27.50;60.30
4896;DHT22;2463;49.948;8.472;2023-07-13T15:03:18;27.40;59.70
4896;DHT22;2463;49.948;8.472;2023-07-13T15:05:48;27.30;58.90
4896;DHT22;2463;49.948;8.472;2023-07-13T15:08:15;27.20;60.40
4896;DHT22;2463;49.948;8.472;2023-07-13T15:10:42;27.20;60.60
4896;DHT22;2463;49.948;8.472;2023-07-13T15:13:17;27.20;60.80
4896;DHT22;2463;49.948;8.472;2023-07-13T15:15:50;27.40;60.90
4896;DHT22;2463;49.948;8.472;2023-07-13T15:18:20;27.60;61.50
4896;DHT22;2463;49.948;8.472;2023-07-13T15:20:48;27.70;60.90
4896;DHT22;2463;49.948;8.472;2023-07-13T15:23:17;27.70;59.20
4896;DHT22;2463;49.948;8.472;2023-07-13T15:25:45;27.60;59.30
4896;DHT22;2463;49.948;8.472;2023-07-13T15:28:12;27.50;59.70
4896;DHT22;2463;49.948;8.472;2023-07-13T15:30:46;27.40;59.20
4896;DHT22;2463;49.948;8.472;2023-07-13T15:33:25;27.30;59.30
4896;DHT22;2463;49.948;8.472;2023-07-13T15:35:52;27.30;59.80
4896;DHT22;2463;49.948;8.472;2023-07-13T15:38:23;27.30;60.60
4896;DHT22;2463;49.948;8.472;2023-07-13T15:40:51;27.30;60.30
4896;DHT22;2463;49.948;8.472;2023-07-13T15:43:19;27.40;59.80
4896;DHT22;2463;49.948;8.472;2023-07-13T15:45:46;27.60;60.40
4896;DHT22;2463;49.948;8.472;2023-07-13T15:48:18;27.90;60.20
4896;DHT22;2463;49.948;8.472;2023-07-13T15:50:47;28.00;59.90
4896;DHT22;2463;49.948;8.472;2023-07-13T15:53:26;28.20;59.30
4896;DHT22;2463;49.948;8.472;2023-07-13T15:55:54;28.10;59.80
4896;DHT22;2463;49.948;8.472;2023-07-13T15:58:21;28.10;59.40
4896;DHT22;2463;49.948;8.472;2023-07-13T16:00:48;28.20;58.20
4896;DHT22;2463;49.948;8.472;2023-07-13T16:03:21;28.30;58.90
4896;DHT22;2463;49.948;8.472;2023-07-13T16:05:48;28.30;59.70
4896;DHT22;2463;49.948;8.472;2023-07-13T16:08:27;28.40;58.30
4896;DHT22;2463;49.948;8.472;2023-07-13T16:10:58;28.50;58.40
4896;DHT22;2463;49.948;8.472;2023-07-13T16:13:25;28.50;56.70
4896;DHT22;2463;49.948;8.472;2023-07-13T16:15:53;28.40;57.60
4896;DHT22;2463;49.948;8.472;2023-07-13T16:18:23;28.40;59.40
4896;DHT22;2463;49.948;8.472;2023-07-13T16:20:50;28.40;58.80
4896;DHT22;2463;49.948;8.472;2023-07-13T16:23:18;28.50;58.50
4896;DHT22;2463;49.948;8.472;2023-07-13T16:25:45;28.60;59.40
4896;DHT22;2463;49.948;8.472;2023-07-13T16:28:12;28.70;57.60
4896;DHT22;2463;49.948;8.472;2023-07-13T16:30:40;28.80;58.10
4896;DHT22;2463;49.948;8.472;2023-07-13T16:33:07;28.70;57.50
4896;DHT22;2463;49.948;8.472;2023-07-13T16:35:39;28.70;57.40
4896;DHT22;2463;49.948;8.472;2023-07-13T16:38:21;28.60;57.20
4896;DHT22;2463;49.948;8.472;2023-07-13T16:40:48;28.50;58.20
4896;DHT22;2463;49.948;8.472;2023-07-13T16:43:18;28.40;58.10
4896;DHT22;2463;49.948;8.472;2023-07-13T16:45:48;28.20;57.70
4896;DHT22;2463;49.948;8.472;2023-07-13T16:48:19;28.10;58.60
4896;DHT22;2463;49.948;8.472;2023-07-13T16:50:54;28.10;58.60
4896;DHT22;2463;49.948;8.472;2023-07-13T16:53:28;28.10;58.40